createdAt,value
2022-09-09T00:00:56.353Z,23.06
2022-09-09T00:03:26.241Z,23.05
2022-09-09T00:06:00.207Z,23.31
2022-09-09T00:08:32.078Z,23.31
2022-09-09T00:11:00.088Z,23.17
2022-09-09T00:13:46.620Z,22.97
2022-09-09T00:16:17.399Z,23.05
2022-09-09T00:19:04.257Z,22.93
2022-09-09T00:21:35.479Z,23.05
2022-09-09T00:24:09.702Z,23.31
2022-09-09T00:26:39.305Z,23.26
2022-09-09T00:29:13.033Z,23.38
2022-09-09T00:31:40.649Z,23.46
2022-09-09T00:34:14.517Z,23.46
2022-09-09T00:36:42.367Z,23.34
2022-09-09T00:39:11.351Z,23.48
2022-09-09T00:41:47.562Z,22.94
2022-09-09T00:44:37.189Z,23.05
2022-09-09T00:47:19.803Z,23.16
2022-09-09T00:50:07.309Z,23.00
2022-09-09T00:52:37.829Z,23.42
2022-09-09T00:55:24.098Z,23.30
2022-09-09T00:57:53.124Z,23.35
2022-09-09T01:00:50.832Z,23.26
2022-09-09T01:03:33.131Z,23.12
2022-09-09T01:06:17.417Z,23.27
2022-09-09T01:08:56.856Z,23.12
2022-09-09T01:11:28.189Z,22.92
2022-09-09T01:14:11.587Z,23.00
2022-09-09T01:16:39.275Z,22.78
2022-09-09T01:19:06.678Z,22.98
2022-09-09T01:21:36.403Z,22.38
2022-09-09T01:24:03.919Z,21.71
2022-09-09T01:26:34.208Z,22.45
2022-09-09T01:29:02.344Z,22.49
2022-09-09T01:31:31.842Z,22.62
2022-09-09T01:33:59.246Z,22.76
2022-09-09T01:36:31.111Z,22.73
2022-09-09T01:38:58.587Z,22.96
2022-09-09T01:41:25.989Z,22.90
2022-09-09T01:43:54.684Z,22.34
2022-09-09T01:46:23.201Z,22.42
2022-09-09T01:48:52.389Z,22.65
2022-09-09T01:51:19.692Z,22.78
2022-09-09T01:53:48.524Z,22.56
2022-09-09T01:56:19.184Z,22.55
2022-09-09T01:59:18.922Z,22.69
2022-09-09T02:01:54.300Z,22.61
2022-09-09T02:04:21.870Z,22.54
2022-09-09T02:06:49.828Z,22.35
2022-09-09T02:09:17.396Z,22.30
2022-09-09T02:11:44.888Z,22.54
2022-09-09T02:14:13.811Z,22.24
2022-09-09T02:16:58.332Z,22.44
2022-09-09T02:19:28.552Z,22.66
2022-09-09T02:21:56.546Z,22.74
2022-09-09T02:24:23.762Z,22.79
2022-09-09T02:26:53.305Z,22.76
2022-09-09T02:29:24.871Z,22.72
2022-09-09T02:31:52.678Z,22.67
2022-09-09T02:34:20.557Z,22.59
2022-09-09T02:36:47.870Z,22.69
2022-09-09T02:39:15.972Z,22.55
2022-09-09T02:41:43.542Z,22.39
2022-09-09T02:44:11.480Z,22.30
2022-09-09T02:47:00.107Z,22.41
2022-09-09T02:49:33.581Z,22.30
2022-09-09T02:52:07.662Z,22.38
2022-09-09T02:54:44.572Z,22.05
2022-09-09T02:57:13.416Z,22.40
2022-09-09T02:59:42.491Z,22.15
2022-09-09T03:02:11.241Z,22.31
2022-09-09T03:04:39.174Z,22.44
2022-09-09T03:07:06.492Z,22.38
2022-09-09T03:09:33.790Z,22.36
2022-09-09T03:12:01.421Z,22.37
2022-09-09T03:14:29.703Z,22.55
2022-09-09T03:16:58.890Z,22.56
2022-09-09T03:19:26.574Z,22.29
2022-09-09T03:21:54.086Z,22.51
2022-09-09T03:24:21.399Z,22.31
2022-09-09T03:26:48.937Z,22.12
2022-09-09T03:29:17.527Z,22.31
2022-09-09T03:31:45.297Z,22.02
2022-09-09T03:34:14.683Z,21.82
2022-09-09T03:36:42.302Z,22.02
2022-09-09T03:39:09.673Z,21.78
2022-09-09T03:41:38.299Z,21.58
2022-09-09T03:44:06.257Z,21.93
2022-09-09T03:46:34.846Z,21.50
2022-09-09T03:49:03.357Z,21.72
2022-09-09T03:51:31.509Z,21.93
2022-09-09T03:53:59.227Z,21.61
2022-09-09T03:56:26.853Z,21.57
2022-09-09T03:58:54.310Z,21.70
2022-09-09T04:01:22.305Z,21.50
2022-09-09T04:03:51.318Z,21.72
2022-09-09T04:06:18.954Z,21.82
2022-09-09T04:08:46.622Z,21.71
2022-09-09T04:11:14.991Z,21.26
2022-09-09T04:13:42.753Z,21.26
2022-09-09T04:16:11.351Z,20.77
2022-09-09T04:18:39.460Z,21.33
2022-09-09T04:21:08.906Z,20.67
2022-09-09T04:23:37.155Z,21.40
2022-09-09T04:26:05.330Z,21.75
2022-09-09T04:28:33.741Z,21.66
2022-09-09T04:31:18.977Z,21.37
2022-09-09T04:33:47.565Z,21.39
2022-09-09T04:36:14.957Z,21.31
2022-09-09T04:38:42.767Z,21.15
2022-09-09T04:41:12.000Z,20.82
2022-09-09T04:43:40.133Z,20.58
2022-09-09T04:46:07.630Z,20.78
2022-09-09T04:48:36.129Z,20.60
2022-09-09T04:51:05.879Z,20.86
2022-09-09T04:53:35.043Z,20.85
2022-09-09T04:56:03.876Z,21.00
2022-09-09T04:58:31.962Z,20.69
2022-09-09T05:01:06.479Z,21.20
2022-09-09T05:03:34.098Z,20.43
2022-09-09T05:06:11.879Z,20.82
2022-09-09T05:08:39.597Z,21.29
2022-09-09T05:11:17.373Z,21.23
2022-09-09T05:13:45.243Z,21.38
2022-09-09T05:16:13.164Z,21.37
2022-09-09T05:18:41.280Z,21.20
2022-09-09T05:21:08.885Z,20.90
2022-09-09T05:23:36.348Z,20.58
2022-09-09T05:26:03.987Z,21.27
2022-09-09T05:28:31.868Z,21.29
2022-09-09T05:31:05.837Z,21.64
2022-09-09T05:33:34.229Z,21.63
2022-09-09T05:36:03.714Z,21.35
2022-09-09T05:38:31.262Z,21.47
2022-09-09T05:40:58.768Z,21.87
2022-09-09T05:43:26.836Z,21.85
2022-09-09T05:46:02.504Z,22.00
2022-09-09T05:48:31.017Z,22.09
2022-09-09T05:50:58.797Z,22.12
2022-09-09T05:53:26.671Z,22.15
2022-09-09T05:56:01.217Z,22.35
2022-09-09T05:58:29.361Z,22.26
2022-09-09T06:01:07.794Z,22.42
2022-09-09T06:03:36.016Z,22.25
2022-09-09T06:06:13.735Z,22.28
2022-09-09T06:08:43.589Z,22.18
2022-09-09T06:11:12.847Z,22.32
2022-09-09T06:13:40.752Z,22.43
2022-09-09T06:16:12.550Z,22.35
2022-09-09T06:18:40.502Z,22.27
2022-09-09T06:21:09.559Z,21.86
2022-09-09T06:23:36.850Z,21.87
2022-09-09T06:26:06.674Z,21.82
2022-09-09T06:28:34.707Z,22.57
2022-09-09T06:31:02.601Z,22.83
2022-09-09T06:33:36.930Z,22.72
2022-09-09T06:36:07.315Z,22.09
2022-09-09T06:38:34.828Z,22.95
2022-09-09T06:41:02.819Z,22.59
2022-09-09T06:43:30.601Z,22.62
2022-09-09T06:45:59.033Z,22.88
2022-09-09T06:48:27.057Z,22.89
2022-09-09T06:51:02.427Z,21.63
2022-09-09T06:53:30.833Z,22.14
2022-09-09T06:55:59.073Z,22.77
2022-09-09T06:58:26.300Z,23.08
2022-09-09T07:01:02.130Z,22.93
2022-09-09T07:03:29.757Z,22.58
2022-09-09T07:05:57.507Z,23.11
2022-09-09T07:08:25.814Z,23.20
2022-09-09T07:11:00.888Z,22.89
2022-09-09T07:13:28.278Z,22.84
2022-09-09T07:15:55.982Z,22.40
2022-09-09T07:18:23.230Z,22.54
2022-09-09T07:20:54.320Z,22.52
2022-09-09T07:23:21.941Z,22.67
2022-09-09T07:25:49.270Z,22.71
2022-09-09T07:28:16.717Z,22.74
2022-09-09T07:30:44.326Z,23.07
2022-09-09T07:33:11.891Z,22.74
2022-09-09T07:35:39.180Z,22.71
2022-09-09T07:38:07.673Z,22.61
2022-09-09T07:40:37.054Z,22.33
2022-09-09T07:43:04.463Z,22.96
2022-09-09T07:45:34.442Z,22.59
2022-09-09T07:48:01.827Z,22.32
2022-09-09T07:50:30.079Z,22.54
2022-09-09T07:52:57.913Z,22.23
2022-09-09T07:55:26.405Z,22.51
2022-09-09T07:57:54.365Z,22.53
2022-09-09T08:00:23.167Z,22.30
2022-09-09T08:02:51.263Z,23.05
2022-09-09T08:05:19.258Z,22.93
2022-09-09T08:07:46.917Z,23.15
2022-09-09T08:10:15.585Z,22.77
2022-09-09T08:13:01.508Z,22.61
2022-09-09T08:15:32.104Z,22.74
2022-09-09T08:17:59.352Z,23.31
2022-09-09T08:20:26.800Z,23.46
2022-09-09T08:22:56.059Z,23.19
2022-09-09T08:25:23.275Z,23.34
2022-09-09T08:27:50.600Z,23.39
2022-09-09T08:30:18.230Z,23.35
2022-09-09T08:32:46.566Z,23.63
2022-09-09T08:35:14.751Z,24.09
2022-09-09T08:37:42.283Z,23.60
2022-09-09T08:40:11.474Z,23.73
2022-09-09T08:42:42.531Z,24.35
2022-09-09T08:45:17.088Z,24.18
2022-09-09T08:48:05.715Z,23.98
2022-09-09T08:50:42.334Z,23.98
2022-09-09T08:53:09.979Z,24.19
2022-09-09T08:55:42.732Z,24.35
2022-09-09T08:58:15.012Z,24.57
2022-09-09T09:01:03.247Z,24.65
2022-09-09T09:03:33.578Z,24.79
2022-09-09T09:06:16.463Z,25.02
2022-09-09T09:08:54.085Z,24.85
2022-09-09T09:11:23.436Z,25.02
2022-09-09T09:13:54.397Z,24.85
2022-09-09T09:16:24.612Z,25.40
2022-09-09T09:18:52.432Z,25.43
2022-09-09T09:21:26.670Z,25.45
2022-09-09T09:23:56.740Z,25.59
2022-09-09T09:26:25.275Z,25.02
2022-09-09T09:28:53.298Z,25.71
2022-09-09T09:31:21.354Z,25.81
2022-09-09T09:33:53.846Z,25.98
2022-09-09T09:36:23.118Z,25.16
2022-09-09T09:41:46.751Z,25.96
2022-09-09T09:44:25.701Z,25.84
2022-09-09T09:46:53.563Z,25.62
2022-09-09T09:49:21.509Z,26.01
2022-09-09T09:51:48.866Z,25.88
2022-09-09T09:54:19.850Z,25.61
2022-09-09T09:56:48.761Z,26.11
2022-09-09T09:59:38.613Z,26.29
2022-09-09T10:02:28.165Z,26.12
2022-09-09T10:05:03.677Z,26.75
2022-09-09T10:07:31.928Z,27.20
2022-09-09T10:09:59.493Z,26.64
2022-09-09T10:12:43.226Z,26.77
2022-09-09T10:15:10.750Z,27.10
2022-09-09T10:17:41.734Z,27.09
2022-09-09T10:20:24.241Z,26.71
2022-09-09T10:22:53.330Z,26.87
2022-09-09T10:25:20.636Z,27.07
2022-09-09T10:28:00.636Z,27.32
2022-09-09T10:30:30.231Z,27.44
2022-09-09T10:35:49.300Z,27.87
2022-09-09T10:38:18.186Z,27.93
2022-09-09T10:40:52.490Z,28.04
2022-09-09T10:43:39.728Z,27.89
2022-09-09T10:46:25.883Z,28.52
2022-09-09T10:49:09.431Z,28.55
2022-09-09T10:51:50.663Z,28.67
2022-09-09T10:54:36.378Z,28.66
2022-09-09T10:57:10.121Z,28.54
2022-09-09T10:59:48.410Z,28.18
2022-09-09T11:02:20.627Z,28.33
2022-09-09T11:05:03.300Z,28.96
2022-09-09T11:07:49.224Z,28.53
2022-09-09T11:10:26.114Z,28.30
2022-09-09T11:12:54.927Z,28.94
2022-09-09T11:15:24.039Z,28.81
2022-09-09T11:17:51.964Z,28.65
2022-09-09T11:20:19.518Z,29.01
2022-09-09T11:22:51.991Z,28.31
2022-09-09T11:25:24.767Z,28.58
2022-09-09T11:28:08.680Z,28.73
2022-09-09T11:30:59.647Z,28.47
2022-09-09T11:33:42.343Z,28.42
2022-09-09T11:36:21.907Z,28.16
2022-09-09T11:38:52.379Z,28.51
2022-09-09T11:41:22.050Z,28.38
2022-09-09T11:43:55.886Z,27.38
2022-09-09T11:46:24.187Z,27.60
2022-09-09T11:49:04.819Z,28.27
2022-09-09T11:51:33.164Z,28.46
2022-09-09T11:54:02.427Z,28.25
2022-09-09T11:56:33.854Z,28.05
2022-09-09T11:59:03.941Z,28.39
2022-09-09T12:01:31.253Z,27.63
2022-09-09T12:04:07.947Z,27.02
2022-09-09T12:06:55.616Z,27.39
2022-09-09T12:09:24.626Z,27.33
2022-09-09T12:11:51.979Z,27.57
2022-09-09T12:14:38.278Z,27.97
2022-09-09T12:17:11.973Z,28.15
2022-09-09T12:19:39.226Z,27.90
2022-09-09T12:22:17.713Z,28.40
2022-09-09T12:24:47.589Z,27.82
2022-09-09T12:27:15.305Z,28.46
2022-09-09T12:29:44.984Z,28.50
2022-09-09T12:32:21.205Z,28.72
2022-09-09T12:34:50.517Z,28.61
2022-09-09T12:37:36.979Z,28.60
2022-09-09T12:40:07.790Z,28.83
2022-09-09T12:42:41.315Z,28.64
2022-09-09T12:45:18.099Z,28.56
2022-09-09T12:47:48.369Z,28.64
2022-09-09T12:50:16.492Z,28.68
2022-09-09T12:52:43.993Z,28.46
2022-09-09T12:55:19.044Z,28.95
2022-09-09T12:57:46.812Z,28.81
2022-09-09T13:00:16.815Z,28.32
2022-09-09T13:02:51.765Z,28.96
2022-09-09T13:05:21.150Z,28.73
2022-09-09T13:07:48.553Z,28.65
2022-09-09T13:10:25.502Z,28.66
2022-09-09T13:13:04.182Z,28.71
2022-09-09T13:15:31.498Z,28.59
2022-09-09T13:17:59.416Z,28.84
2022-09-09T13:20:27.610Z,28.05
2022-09-09T13:22:55.948Z,28.43
2022-09-09T13:25:26.736Z,28.32
2022-09-09T13:27:54.549Z,28.34
2022-09-09T13:30:26.624Z,28.80
2022-09-09T13:33:15.506Z,28.99
2022-09-09T13:35:47.521Z,28.74
2022-09-09T13:38:15.534Z,28.76
2022-09-09T13:40:53.161Z,28.31
2022-09-09T13:43:22.260Z,28.46
2022-09-09T13:46:00.599Z,28.27
2022-09-09T13:48:28.494Z,28.51
2022-09-09T13:51:00.187Z,28.88
2022-09-09T13:53:28.589Z,28.18
2022-09-09T13:55:55.906Z,28.42
2022-09-09T13:58:24.205Z,28.67
2022-09-09T14:00:52.283Z,28.80
2022-09-09T14:03:20.619Z,28.48
2022-09-09T14:05:47.866Z,28.81
2022-09-09T14:08:22.888Z,28.55
2022-09-09T14:10:50.498Z,28.45
2022-09-09T14:13:17.767Z,28.88
2022-09-09T14:15:45.079Z,28.60
2022-09-09T14:18:13.533Z,28.77
2022-09-09T14:20:40.936Z,28.92
2022-09-09T14:23:10.487Z,28.63
2022-09-09T14:25:40.002Z,28.39
2022-09-09T14:28:08.993Z,28.39
2022-09-09T14:30:36.222Z,28.70
2022-09-09T14:33:03.761Z,28.96
2022-09-09T14:35:31.067Z,28.88
2022-09-09T14:37:58.283Z,28.81
2022-09-09T14:40:26.290Z,28.67
2022-09-09T14:42:53.915Z,29.07
2022-09-09T14:45:22.359Z,29.07
2022-09-09T14:47:50.581Z,28.67
2022-09-09T14:50:18.261Z,28.51
2022-09-09T14:52:45.519Z,28.94
2022-09-09T14:55:13.037Z,28.91
2022-09-09T14:57:41.235Z,28.84
2022-09-09T15:00:09.611Z,28.96
2022-09-09T15:02:37.232Z,28.84
2022-09-09T15:05:05.319Z,28.91
2022-09-09T15:07:32.937Z,28.73
2022-09-09T15:10:00.585Z,28.49
2022-09-09T15:12:29.393Z,28.79
2022-09-09T15:14:56.833Z,28.82
2022-09-09T15:17:26.910Z,28.86
2022-09-09T15:19:54.352Z,28.72
2022-09-09T15:22:21.771Z,28.86
2022-09-09T15:24:49.303Z,28.69
2022-09-09T15:27:16.576Z,29.14
2022-09-09T15:29:45.154Z,28.96
2022-09-09T15:32:12.683Z,29.24
2022-09-09T15:34:40.607Z,29.01
2022-09-09T15:37:08.446Z,29.16
2022-09-09T15:39:38.887Z,28.92
2022-09-09T15:42:08.081Z,29.22
2022-09-09T15:44:43.435Z,29.16
2022-09-09T15:47:14.276Z,29.22
2022-09-09T15:49:41.809Z,29.15
2022-09-09T15:52:09.856Z,29.19
2022-09-09T15:54:40.160Z,29.19
2022-09-09T15:57:08.656Z,29.18
2022-09-09T15:59:36.025Z,29.13
2022-09-09T16:02:04.313Z,28.99
2022-09-09T16:04:32.211Z,29.01
2022-09-09T16:07:00.512Z,28.96
2022-09-09T16:09:28.293Z,28.85
2022-09-09T16:12:00.016Z,28.86
2022-09-09T16:14:27.942Z,28.85
2022-09-09T16:16:56.688Z,28.84
2022-09-09T16:19:23.969Z,28.69
2022-09-09T16:21:51.311Z,28.68
2022-09-09T16:24:19.606Z,28.65
2022-09-09T16:26:52.244Z,28.62
2022-09-09T16:29:19.884Z,28.62
2022-09-09T16:31:49.270Z,28.54
2022-09-09T16:34:18.351Z,28.54
2022-09-09T16:36:46.045Z,28.48
2022-09-09T16:39:16.006Z,28.46
2022-09-09T16:41:44.851Z,28.39
2022-09-09T16:44:13.269Z,28.31
2022-09-09T16:46:41.660Z,28.26
2022-09-09T16:49:09.822Z,28.16
2022-09-09T16:51:38.731Z,28.09
2022-09-09T16:54:08.123Z,27.82
2022-09-09T16:56:38.029Z,27.91
2022-09-09T16:59:06.774Z,27.93
2022-09-09T17:01:38.046Z,27.92
2022-09-09T17:04:06.926Z,27.86
2022-09-09T17:06:40.235Z,27.80
2022-09-09T17:09:11.690Z,27.74
2022-09-09T17:11:39.419Z,27.66
2022-09-09T17:14:07.666Z,27.59
2022-09-09T17:16:35.503Z,27.55
2022-09-09T17:19:05.251Z,27.50
2022-09-09T17:21:33.292Z,27.46
2022-09-09T17:24:01.117Z,27.36
2022-09-09T17:26:29.869Z,27.33
2022-09-09T17:28:59.847Z,27.29
2022-09-09T17:31:28.645Z,27.20
2022-09-09T17:33:56.316Z,27.14
2022-09-09T17:36:25.551Z,27.08
2022-09-09T17:38:53.262Z,26.87
2022-09-09T17:41:21.562Z,26.80
2022-09-09T17:43:49.245Z,26.78
2022-09-09T17:46:21.101Z,26.66
2022-09-09T17:48:49.188Z,26.66
2022-09-09T17:51:19.894Z,26.67
2022-09-09T17:53:48.551Z,26.66
2022-09-09T17:56:16.981Z,26.65
2022-09-09T17:58:45.345Z,26.61
2022-09-09T18:01:14.517Z,26.65
2022-09-09T18:03:43.621Z,26.60
2022-09-09T18:06:13.822Z,26.59
2022-09-09T18:08:41.100Z,26.25
2022-09-09T18:11:08.955Z,26.12
2022-09-09T18:13:36.521Z,26.11
2022-09-09T18:16:06.717Z,26.16
2022-09-09T18:18:34.234Z,25.94
2022-09-09T18:21:02.625Z,25.92
2022-09-09T18:23:32.098Z,25.96
2022-09-09T18:25:59.689Z,25.79
2022-09-09T18:28:27.874Z,25.79
2022-09-09T18:30:55.602Z,25.79
2022-09-09T18:33:25.364Z,25.81
2022-09-09T18:35:52.849Z,25.58
2022-09-09T18:38:20.068Z,25.61
2022-09-09T18:40:47.721Z,25.46
2022-09-09T18:43:17.629Z,25.49
2022-09-09T18:45:45.373Z,25.56
2022-09-09T18:48:13.367Z,25.57
2022-09-09T18:50:42.029Z,25.55
2022-09-09T18:53:10.827Z,25.56
2022-09-09T18:55:38.437Z,25.53
2022-09-09T18:58:05.775Z,25.40
2022-09-09T19:00:33.397Z,25.37
2022-09-09T19:03:01.052Z,25.41
2022-09-09T19:05:28.334Z,25.52
2022-09-09T19:07:57.074Z,25.50
2022-09-09T19:10:25.087Z,25.52
2022-09-09T19:12:56.338Z,25.48
2022-09-09T19:15:24.620Z,25.37
2022-09-09T19:17:54.261Z,25.18
2022-09-09T19:20:23.710Z,25.09
2022-09-09T19:22:52.403Z,25.15
2022-09-09T19:25:22.932Z,25.18
2022-09-09T19:27:50.240Z,25.03
2022-09-09T19:30:19.146Z,24.93
2022-09-09T19:32:53.565Z,24.87
2022-09-09T19:35:21.468Z,24.89
2022-09-09T19:37:49.406Z,24.77
2022-09-09T19:40:17.516Z,24.71
2022-09-09T19:42:44.785Z,24.39
2022-09-09T19:45:12.393Z,24.54
2022-09-09T19:47:39.664Z,24.67
2022-09-09T19:50:07.222Z,24.60
2022-09-09T19:52:34.848Z,24.43
2022-09-09T19:55:02.277Z,24.46
2022-09-09T19:57:30.831Z,24.37
2022-09-09T19:59:58.394Z,24.43
2022-09-09T20:02:25.652Z,24.42
2022-09-09T20:04:54.396Z,24.55
2022-09-09T20:07:21.718Z,24.68
2022-09-09T20:09:49.418Z,24.77
2022-09-09T20:12:17.040Z,24.83
2022-09-09T20:14:44.252Z,24.89
2022-09-09T20:17:12.477Z,24.72
2022-09-09T20:19:40.131Z,24.68
2022-09-09T20:22:07.438Z,24.42
2022-09-09T20:24:34.738Z,24.73
2022-09-09T20:27:02.260Z,24.77
2022-09-09T20:29:29.532Z,24.74
2022-09-09T20:31:56.862Z,24.55
2022-09-09T20:34:27.236Z,24.62
2022-09-09T20:36:55.658Z,24.42
2022-09-09T20:39:22.935Z,24.38
2022-09-09T20:41:50.478Z,24.36
2022-09-09T20:44:22.847Z,24.37
2022-09-09T20:46:51.917Z,24.40
2022-09-09T20:49:20.525Z,24.30
2022-09-09T20:51:48.192Z,24.39
2022-09-09T20:54:16.602Z,24.25
2022-09-09T20:56:45.149Z,24.30
2022-09-09T20:59:13.438Z,24.27
2022-09-09T21:01:40.992Z,24.25
2022-09-09T21:04:09.662Z,24.24
2022-09-09T21:06:37.219Z,24.27
2022-09-09T21:09:04.620Z,24.23
2022-09-09T21:11:32.620Z,24.07
2022-09-09T21:13:59.863Z,24.18
2022-09-09T21:16:27.895Z,23.97
2022-09-09T21:18:55.343Z,23.81
2022-09-09T21:21:22.618Z,23.92
2022-09-09T21:23:50.144Z,23.88
2022-09-09T21:26:19.547Z,24.03
2022-09-09T21:28:46.833Z,23.98
2022-09-09T21:31:14.749Z,24.05
2022-09-09T21:33:43.017Z,24.12
2022-09-09T21:36:11.135Z,24.23
2022-09-09T21:38:40.345Z,24.12
2022-09-09T21:41:09.249Z,24.06
2022-09-09T21:43:36.482Z,24.34
2022-09-09T21:46:07.685Z,24.39
2022-09-09T21:48:35.366Z,24.29
2022-09-09T21:51:06.479Z,24.35
2022-09-09T21:53:33.911Z,24.35
2022-09-09T21:56:07.016Z,24.37
2022-09-09T21:58:34.559Z,24.36
2022-09-09T22:01:02.319Z,24.20
2022-09-09T22:03:29.816Z,24.22
2022-09-09T22:05:58.604Z,24.13
2022-09-09T22:08:25.918Z,24.07
2022-09-09T22:10:53.416Z,23.92
2022-09-09T22:13:20.662Z,23.96
2022-09-09T22:15:48.087Z,24.02
2022-09-09T22:18:16.143Z,24.09
2022-09-09T22:20:44.144Z,24.17
2022-09-09T22:23:12.062Z,24.13
2022-09-09T22:25:40.424Z,24.14
2022-09-09T22:28:08.300Z,24.17
2022-09-09T22:30:35.692Z,24.11
2022-09-09T22:33:03.360Z,24.08
2022-09-09T22:35:30.546Z,23.94
2022-09-09T22:37:58.369Z,23.80
2022-09-09T22:40:25.820Z,23.83
2022-09-09T22:42:53.488Z,23.76
2022-09-09T22:45:21.720Z,23.87
2022-09-09T22:47:49.272Z,23.91
2022-09-09T22:50:16.764Z,24.02
2022-09-09T22:52:43.971Z,23.95
2022-09-09T22:55:11.556Z,23.84
2022-09-09T22:57:38.760Z,23.80
2022-09-09T23:00:09.335Z,23.77
2022-09-09T23:02:40.779Z,23.71
2022-09-09T23:05:08.864Z,23.71
2022-09-09T23:07:36.793Z,23.78
2022-09-09T23:10:05.335Z,23.83
2022-09-09T23:12:33.106Z,23.81
2022-09-09T23:15:00.875Z,23.79
2022-09-09T23:17:28.102Z,23.74
2022-09-09T23:19:56.408Z,23.78
2022-09-09T23:22:24.379Z,23.85
2022-09-09T23:24:52.839Z,23.92
2022-09-09T23:27:21.434Z,23.99
2022-09-09T23:29:49.699Z,24.06
2022-09-09T23:32:17.669Z,24.05
2022-09-09T23:34:47.670Z,23.99
2022-09-09T23:37:15.254Z,24.15
2022-09-09T23:39:42.792Z,24.17
2022-09-09T23:42:11.355Z,24.15
2022-09-09T23:44:39.574Z,24.12
2022-09-09T23:47:07.369Z,24.08
2022-09-09T23:49:35.010Z,24.20
2022-09-09T23:52:05.419Z,24.13
2022-09-09T23:54:33.031Z,24.11
2022-09-09T23:57:00.390Z,24.13
2022-09-09T23:59:27.924Z,23.85
